Time;durP1;ratioP1;P1;durP2;ratioP2;P2;SDS_P1;SDS_P2;PMS_P1;PMS_P2;Temp;Humidity;BMP_temperature;BMP_pressure;BME280_temperature;BME280_humidity;BME280_pressure;Samples;Min_cycle;Max_cycle;Signal;HPM_P1;HPM_P2
2022/01/31 00:02:48;;;;;;;7.20;1.92;;;7.90;96.90;;;;;;10460589;28;20029;-69
2022/01/31 00:07:49;;;;;;;9.88;2.28;;;7.90;96.90;;;;;;10447450;28;20057;-68
2022/01/31 00:12:56;;;;;;;7.75;2.45;;;7.90;96.90;;;;;;10446368;28;20108;-62
2022/01/31 00:17:56;;;;;;;7.47;2.30;;;7.90;96.90;;;;;;10446827;28;20098;-65
2022/01/31 00:22:57;;;;;;;10.15;2.38;;;7.90;96.90;;;;;;10445246;28;20506;-66
2022/01/31 00:27:58;;;;;;;9.80;2.63;;;7.90;96.90;;;;;;10444333;28;20250;-63
2022/01/31 00:32:59;;;;;;;11.55;2.88;;;7.90;96.90;;;;;;10451073;28;20504;-66
2022/01/31 00:38:00;;;;;;;11.38;3.17;;;7.90;96.90;;;;;;10444153;28;20036;-68
2022/01/31 00:43:00;;;;;;;8.32;3.00;;;7.90;96.90;;;;;;10444220;28;20130;-66
2022/01/31 00:48:03;;;;;;;8.65;3.30;;;7.90;96.90;;;;;;10443957;28;20052;-67
2022/01/31 00:53:04;;;;;;;9.43;2.85;;;7.90;96.80;;;;;;10444016;28;20021;-66
2022/01/31 00:58:05;;;;;;;10.70;3.97;;;7.80;96.80;;;;;;10443793;28;20033;-68
2022/01/31 01:03:05;;;;;;;10.00;3.47;;;8.00;96.90;;;;;;10444037;28;20515;-68
2022/01/31 01:08:06;;;;;;;11.25;3.50;;;8.10;96.90;;;;;;10449890;28;20525;-65
2022/01/31 01:13:07;;;;;;;15.35;4.00;;;7.90;96.80;;;;;;10443276;28;20071;-65
2022/01/31 01:18:08;;;;;;;10.57;3.78;;;7.80;96.80;;;;;;10445641;28;20017;-68
2022/01/31 01:23:09;;;;;;;8.93;3.85;;;7.80;96.80;;;;;;10450684;28;20029;-67
2022/01/31 01:28:09;;;;;;;11.35;4.32;;;7.80;96.80;;;;;;10450529;28;20048;-65
2022/01/31 01:33:18;;;;;;;11.60;3.97;;;7.80;96.90;;;;;;10450537;28;20086;-68
2022/01/31 01:38:20;;;;;;;12.40;4.60;;;7.80;96.90;;;;;;10449110;28;20041;-68
2022/01/31 01:43:21;;;;;;;9.90;3.80;;;7.90;97.00;;;;;;10449166;28;20434;-68
2022/01/31 01:48:22;;;;;;;15.13;4.85;;;7.80;97.00;;;;;;10448662;28;20155;-66
2022/01/31 01:53:24;;;;;;;14.00;4.85;;;7.80;97.00;;;;;;10449297;28;20037;-64
2022/01/31 01:58:28;;;;;;;8.35;3.90;;;7.80;97.30;;;;;;10449538;28;20035;-67
2022/01/31 02:03:31;;;;;;;8.65;3.92;;;7.80;97.10;;;;;;10449471;28;20041;-68
2022/01/31 02:08:43;;;;;;;9.98;4.85;;;7.80;97.10;;;;;;10459078;28;20499;-68
2022/01/31 02:13:43;;;;;;;6.15;3.40;;;7.80;97.10;;;;;;10455567;28;20043;-67
2022/01/31 02:18:49;;;;;;;7.15;3.50;;;7.80;97.20;;;;;;10454217;28;20051;-67
2022/01/31 02:23:49;;;;;;;7.72;3.92;;;7.70;97.20;;;;;;10451765;28;20475;-67
2022/01/31 02:28:50;;;;;;;7.90;3.40;;;7.70;97.20;;;;;;10454312;28;20175;-63
2022/01/31 02:33:51;;;;;;;6.70;3.65;;;7.70;97.20;;;;;;10445682;28;20032;-68
2022/01/31 02:38:52;;;;;;;8.43;3.80;;;7.80;97.20;;;;;;10444891;28;20151;-66
2022/01/31 02:43:54;;;;;;;6.13;3.20;;;7.80;97.30;;;;;;10447857;28;20025;-65
2022/01/31 02:48:56;;;;;;;7.72;3.00;;;7.70;97.30;;;;;;10440714;28;20061;-69
2022/01/31 02:53:57;;;;;;;6.72;3.45;;;7.70;97.30;;;;;;10445911;28;20383;-69
2022/01/31 02:58:58;;;;;;;6.15;3.25;;;7.80;97.40;;;;;;10445640;28;20032;-64
2022/01/31 03:03:58;;;;;;;6.65;2.60;;;7.70;97.30;;;;;;10455940;28;20390;-66
2022/01/31 03:08:59;;;;;;;5.90;2.92;;;7.70;97.60;;;;;;10455156;28;20049;-69
2022/01/31 03:14:00;;;;;;;3.72;2.50;;;7.70;97.40;;;;;;10455619;28;20020;-69
2022/01/31 03:19:01;;;;;;;5.40;2.90;;;7.70;97.40;;;;;;10453568;28;20033;-66
2022/01/31 03:24:01;;;;;;;7.43;2.78;;;7.80;97.50;;;;;;10456119;28;20024;-69
2022/01/31 03:29:03;;;;;;;6.65;2.20;;;7.70;97.40;;;;;;10445264;28;20060;-67
2022/01/31 03:34:04;;;;;;;5.80;2.17;;;7.80;97.50;;;;;;10458136;28;20020;-69
2022/01/31 03:39:05;;;;;;;4.75;2.30;;;7.70;97.50;;;;;;10447148;28;20261;-68
2022/01/31 03:44:06;;;;;;;4.03;2.10;;;7.80;97.50;;;;;;10456530;28;20083;-62
2022/01/31 03:49:06;;;;;;;5.68;1.92;;;7.80;97.50;;;;;;10451106;28;20029;-69
2022/01/31 03:54:07;;;;;;;5.40;1.90;;;7.80;97.50;;;;;;10458292;28;20049;-66
2022/01/31 03:59:08;;;;;;;5.15;1.80;;;7.80;97.80;;;;;;10448412;28;20112;-68
2022/01/31 04:04:10;;;;;;;4.20;1.52;;;8.00;97.60;;;;;;10457711;28;20100;-63
2022/01/31 04:09:11;;;;;;;4.93;2.15;;;7.80;97.60;;;;;;10446617;28;20139;-66
2022/01/31 04:14:12;;;;;;;8.82;1.63;;;7.80;97.90;;;;;;10458828;28;20017;-69
2022/01/31 04:19:13;;;;;;;7.13;1.98;;;7.90;97.60;;;;;;10457537;28;20017;-68
2022/01/31 04:24:19;;;;;;;6.05;1.80;;;8.00;97.70;;;;;;10453321;28;20028;-67
2022/01/31 04:29:20;;;;;;;4.20;1.65;;;7.90;97.70;;;;;;10459672;28;20049;-64
2022/01/31 04:34:22;;;;;;;7.60;1.92;;;7.80;97.70;;;;;;10453075;28;20048;-63
2022/01/31 04:39:23;;;;;;;4.07;1.65;;;7.90;97.70;;;;;;10447759;28;20086;-64
2022/01/31 04:44:24;;;;;;;3.95;1.40;;;7.90;97.70;;;;;;10443614;28;20078;-65
2022/01/31 04:49:25;;;;;;;2.83;1.58;;;7.90;97.80;;;;;;10445980;28;20033;-67
2022/01/31 04:54:25;;;;;;;6.78;1.77;;;7.10;97.60;;;;;;10451637;28;20025;-66
2022/01/31 04:59:27;;;;;;;3.60;1.20;;;7.80;97.80;;;;;;10446463;28;20036;-65
2022/01/31 05:04:27;;;;;;;6.30;1.20;;;7.90;97.80;;;;;;10461561;28;20033;-67
2022/01/31 05:09:28;;;;;;;3.72;1.33;;;7.90;97.90;;;;;;10451834;28;20053;-68
2022/01/31 05:14:29;;;;;;;2.08;1.00;;;7.90;97.90;;;;;;10455841;28;20029;-68
2022/01/31 05:19:29;;;;;;;6.63;1.40;;;7.90;97.90;;;;;;10451362;28;20025;-70
2022/01/31 05:24:30;;;;;;;9.07;1.95;;;7.90;97.90;;;;;;10455001;28;20036;-60
2022/01/31 05:29:31;;;;;;;3.50;1.05;;;7.90;98.00;;;;;;10453161;28;20041;-65
2022/01/31 05:34:32;;;;;;;3.42;1.02;;;7.80;98.00;;;;;;10460005;28;20021;-70
2022/01/31 05:39:32;;;;;;;6.07;1.42;;;7.90;98.00;;;;;;10452237;28;20028;-71
2022/01/31 05:44:33;;;;;;;6.05;1.85;;;8.00;98.10;;;;;;10458152;28;20544;-70
2022/01/31 05:49:35;;;;;;;8.32;1.20;;;8.00;98.10;;;;;;10453666;28;20152;-67
2022/01/31 05:54:38;;;;;;;4.35;1.42;;;8.00;98.10;;;;;;10450714;28;20029;-67
2022/01/31 05:59:40;;;;;;;3.75;0.90;;;8.00;98.10;;;;;;10450970;28;20079;-69
2022/01/31 06:04:40;;;;;;;3.85;1.20;;;7.90;98.10;;;;;;10454464;28;20368;-65
2022/01/31 06:09:41;;;;;;;5.70;1.17;;;7.90;98.20;;;;;;10447537;28;20057;-72
2022/01/31 06:14:42;;;;;;;4.22;1.15;;;7.90;98.40;;;;;;10450871;28;20127;-69
2022/01/31 06:19:43;;;;;;;4.05;1.10;;;7.90;98.20;;;;;;10452300;28;20017;-70
2022/01/31 06:24:44;;;;;;;3.60;1.42;;;7.90;98.20;;;;;;10453725;28;20028;-68
2022/01/31 06:29:46;;;;;;;4.25;1.00;;;7.90;98.20;;;;;;10446653;28;20115;-70
2022/01/31 06:34:47;;;;;;;3.58;0.68;;;7.90;98.30;;;;;;10446811;28;20024;-69
2022/01/31 06:39:48;;;;;;;2.90;0.98;;;7.90;98.30;;;;;;10446704;28;20037;-68
2022/01/31 06:44:48;;;;;;;4.50;1.20;;;7.90;98.30;;;;;;10447530;28;20078;-69
2022/01/31 06:49:49;;;;;;;4.22;1.02;;;7.90;98.40;;;;;;10446266;28;20047;-67
2022/01/31 06:54:51;;;;;;;4.53;1.00;;;7.90;98.40;;;;;;10447719;28;20122;-69
2022/01/31 06:59:52;;;;;;;2.80;0.90;;;8.00;98.40;;;;;;10442617;28;20060;-69
2022/01/31 07:04:52;;;;;;;4.88;0.60;;;7.90;98.40;;;;;;10443267;28;20074;-70
2022/01/31 07:09:53;;;;;;;4.75;0.93;;;7.90;98.40;;;;;;10443535;28;20422;-65
2022/01/31 07:14:54;;;;;;;4.35;0.82;;;7.90;98.40;;;;;;10444389;28;20112;-65
2022/01/31 07:19:55;;;;;;;4.80;0.80;;;7.90;98.40;;;;;;10445383;28;20040;-64
2022/01/31 07:25:02;;;;;;;4.10;0.65;;;7.90;98.50;;;;;;10451270;28;20037;-63
2022/01/31 07:30:05;;;;;;;4.53;0.90;;;7.90;98.50;;;;;;10444318;28;20040;-63
2022/01/31 07:35:06;;;;;;;5.10;0.82;;;7.90;98.50;;;;;;10438723;28;20021;-61
2022/01/31 07:40:07;;;;;;;3.53;0.80;;;7.90;98.50;;;;;;10442251;28;20081;-64
2022/01/31 07:45:08;;;;;;;5.65;0.98;;;7.90;98.60;;;;;;10441365;28;20171;-62
2022/01/31 07:50:10;;;;;;;2.20;0.57;;;7.90;98.80;;;;;;10442375;28;20070;-64
2022/01/31 07:55:11;;;;;;;3.67;0.63;;;7.90;98.60;;;;;;10438741;28;20070;-64
2022/01/31 08:00:13;;;;;;;2.58;0.50;;;7.90;98.70;;;;;;10442272;28;20048;-64
2022/01/31 08:05:14;;;;;;;5.47;0.80;;;7.90;99.00;;;;;;10437691;28;20021;-65
2022/01/31 08:10:16;;;;;;;2.67;0.80;;;7.90;98.70;;;;;;10437646;28;20064;-61
2022/01/31 08:15:25;;;;;;;3.72;0.82;;;8.00;98.70;;;;;;10443844;28;20040;-65
2022/01/31 08:20:25;;;;;;;8.73;0.85;;;7.90;98.70;;;;;;10441525;28;20067;-65
2022/01/31 08:25:26;;;;;;;3.70;1.20;;;7.90;98.80;;;;;;10458545;28;20491;-65
2022/01/31 08:30:37;;;;;;;4.65;0.82;;;8.00;98.80;;;;;;10456786;28;20029;-65
2022/01/31 08:35:50;;;;;;;4.70;0.80;;;8.00;98.80;;;;;;10452026;28;20056;-64
2022/01/31 08:40:51;;;;;;;4.47;0.88;;;8.00;98.80;;;;;;10452103;28;20069;-65
2022/01/31 08:45:55;;;;;;;3.70;0.70;;;8.20;98.80;;;;;;10443674;28;20504;-66
2022/01/31 08:50:56;;;;;;;3.70;0.93;;;8.00;98.80;;;;;;10450684;28;20333;-64
2022/01/31 08:56:04;;;;;;;4.05;0.50;;;8.00;98.80;;;;;;10449910;28;20025;-65
2022/01/31 09:01:07;;;;;;;3.57;0.67;;;8.10;98.80;;;;;;10449311;28;20068;-65
2022/01/31 09:06:11;;;;;;;6.53;1.08;;;8.10;98.80;;;;;;10451676;28;20052;-65
2022/01/31 09:11:12;;;;;;;4.70;0.95;;;8.10;98.90;;;;;;10440788;28;20555;-63
2022/01/31 09:16:13;;;;;;;5.15;0.65;;;8.10;98.90;;;;;;10447316;28;20017;-65
2022/01/31 09:21:14;;;;;;;4.20;1.05;;;8.20;98.90;;;;;;10449857;28;20029;-64
2022/01/31 09:26:15;;;;;;;2.90;0.80;;;8.20;98.90;;;;;;10440522;28;20033;-66
2022/01/31 09:31:16;;;;;;;4.05;0.77;;;8.20;98.90;;;;;;10439803;28;20025;-65
2022/01/31 09:36:18;;;;;;;5.72;0.70;;;8.20;98.90;;;;;;10438313;28;20024;-65
2022/01/31 09:41:22;;;;;;;2.72;1.55;;;8.30;98.90;;;;;;10438456;28;20096;-62
2022/01/31 09:51:27;;;;;;;4.15;0.70;;;8.30;98.90;;;;;;10442267;28;20381;-66
2022/01/31 09:56:33;;;;;;;5.63;0.90;;;8.50;98.90;;;;;;10442606;28;20033;-64
2022/01/31 10:01:39;;;;;;;3.60;0.63;;;8.40;98.80;;;;;;10448265;28;20462;-64
2022/01/31 10:06:43;;;;;;;1.80;0.60;;;8.50;98.80;;;;;;10439438;28;20576;-64
2022/01/31 10:11:51;;;;;;;3.47;0.75;;;8.60;98.80;;;;;;10447723;28;20025;-64
2022/01/31 10:16:51;;;;;;;3.65;0.60;;;8.70;98.70;;;;;;10447873;28;20089;-63
2022/01/31 10:22:05;;;;;;;2.28;0.47;;;8.70;98.70;;;;;;10447651;28;20037;-65
2022/01/31 10:27:08;;;;;;;2.70;0.40;;;8.70;98.70;;;;;;10447000;28;20060;-65
2022/01/31 10:32:28;;;;;;;3.70;0.90;;;8.70;98.60;;;;;;10446228;28;20455;-65
2022/01/31 10:37:30;;;;;;;1.85;0.52;;;8.70;98.70;;;;;;10447894;28;20017;-65
2022/01/31 10:53:43;;;;;;;3.55;0.90;;;8.80;98.80;;;;;;10444786;28;20028;-64
2022/01/31 10:58:59;;;;;;;4.05;0.77;;;8.80;98.80;;;;;;10438734;28;20098;-64
2022/01/31 11:04:05;;;;;;;3.63;0.50;;;8.80;98.80;;;;;;10444653;28;20352;-65
2022/01/31 11:09:08;;;;;;;6.95;0.70;;;8.80;98.80;;;;;;10443714;28;20060;-65
2022/01/31 11:14:10;;;;;;;1.33;0.47;;;8.80;98.80;;;;;;10444110;28;20017;-66
2022/01/31 11:19:12;;;;;;;1.63;0.55;;;8.80;98.80;;;;;;10443838;28;20059;-66
2022/01/31 11:24:27;;;;;;;4.32;0.90;;;9.60;99.00;;;;;;10446083;28;20455;-65
2022/01/31 11:29:28;;;;;;;2.58;0.60;;;8.70;99.10;;;;;;10439624;28;20029;-65
2022/01/31 11:34:29;;;;;;;2.05;0.57;;;8.70;98.90;;;;;;10439862;28;20082;-64
2022/01/31 11:39:30;;;;;;;1.52;0.57;;;8.70;99.00;;;;;;10447410;28;20432;-65
2022/01/31 11:44:49;;;;;;;2.88;0.60;;;8.70;99.00;;;;;;10445312;28;20024;-64
2022/01/31 11:49:58;;;;;;;3.10;0.60;;;8.70;99.10;;;;;;10444387;28;20084;-63
2022/01/31 11:55:02;;;;;;;2.05;0.60;;;8.70;99.00;;;;;;10443769;28;20029;-63
2022/01/31 12:00:14;;;;;;;3.58;0.52;;;8.60;99.10;;;;;;10443410;28;20009;-64
2022/01/31 12:05:23;;;;;;;1.88;0.47;;;8.70;99.10;;;;;;10438395;28;20029;-64
2022/01/31 12:10:33;;;;;;;1.48;0.52;;;8.70;99.10;;;;;;10438887;28;20063;-65
2022/01/31 12:26:34;;;;;;;3.58;0.85;;;8.60;99.20;;;;;;10447473;28;20036;-62
2022/01/31 12:31:35;;;;;;;1.88;0.35;;;8.60;99.20;;;;;;10448520;28;20029;-64
2022/01/31 12:36:38;;;;;;;1.67;0.50;;;8.60;99.20;;;;;;10443266;28;20021;-64
2022/01/31 12:41:39;;;;;;;3.05;0.55;;;8.70;99.20;;;;;;10452980;28;20017;-63
2022/01/31 12:46:49;;;;;;;3.28;0.63;;;8.70;99.20;;;;;;10439875;28;20044;-65
2022/01/31 12:51:59;;;;;;;2.88;0.80;;;8.80;99.30;;;;;;10441109;28;20127;-66
2022/01/31 12:57:13;;;;;;;1.70;0.50;;;8.80;99.20;;;;;;10426818;28;20024;-70
2022/01/31 13:02:14;;;;;;;6.63;0.70;;;8.90;99.20;;;;;;10438610;28;20057;-70
2022/01/31 13:07:18;;;;;;;2.80;0.75;;;8.90;99.20;;;;;;10426062;28;20041;-64
2022/01/31 13:12:20;;;;;;;1.52;0.57;;;8.90;99.20;;;;;;10409998;28;20025;-66
2022/01/31 13:17:25;;;;;;;6.43;1.00;;;8.90;99.30;;;;;;10442137;28;20044;-64
2022/01/31 13:27:35;;;;;;;4.60;1.15;;;9.10;99.50;;;;;;10446822;28;20368;-66
2022/01/31 13:32:37;;;;;;;2.72;0.70;;;8.90;99.40;;;;;;10428082;28;20403;-64
2022/01/31 13:37:38;;;;;;;3.08;0.73;;;8.90;99.40;;;;;;10433254;28;20037;-65
2022/01/31 13:42:41;;;;;;;2.40;0.40;;;8.90;99.50;;;;;;10433660;28;21105;-67
2022/01/31 13:47:54;;;;;;;2.75;0.70;;;8.90;99.50;;;;;;10439310;28;20112;-66
2022/01/31 13:53:07;;;;;;;5.05;0.75;;;8.90;99.60;;;;;;10450508;28;20067;-66
2022/01/31 13:58:08;;;;;;;5.75;0.90;;;8.90;99.60;;;;;;10447760;28;20107;-66
2022/01/31 14:03:26;;;;;;;1.55;0.52;;;8.90;99.60;;;;;;10433034;28;20079;-67
2022/01/31 14:08:36;;;;;;;3.72;0.85;;;8.90;99.70;;;;;;10417861;28;20195;-66
2022/01/31 14:13:40;;;;;;;7.68;0.98;;;8.90;99.70;;;;;;10416574;28;20501;-64
2022/01/31 14:18:47;;;;;;;2.70;1.00;;;8.90;99.70;;;;;;10418330;28;20101;-64
2022/01/31 14:23:50;;;;;;;7.55;1.33;;;8.90;99.80;;;;;;10415057;28;20108;-65
2022/01/31 14:28:54;;;;;;;6.35;1.20;;;8.90;99.90;;;;;;10411427;28;20080;-67
2022/01/31 14:33:55;;;;;;;4.20;0.80;;;8.90;99.90;;;;;;10408264;28;20024;-67
2022/01/31 14:39:00;;;;;;;7.63;1.13;;;8.90;99.90;;;;;;10410349;28;20257;-66
2022/01/31 14:49:28;;;;;;;7.70;1.15;;;8.00;99.80;;;;;;10410603;28;20044;-69
2022/01/31 14:54:28;;;;;;;2.67;0.73;;;8.90;99.90;;;;;;10409130;28;20036;-65
2022/01/31 14:59:29;;;;;;;7.32;1.00;;;8.90;99.90;;;;;;10413065;28;20499;-66
2022/01/31 15:04:30;;;;;;;3.17;0.95;;;8.90;99.90;;;;;;10415635;28;20021;-67
2022/01/31 15:09:31;;;;;;;4.65;1.30;;;8.90;99.90;;;;;;10410751;28;20182;-66
2022/01/31 15:14:32;;;;;;;10.07;0.95;;;8.90;99.90;;;;;;10406890;28;20108;-69
2022/01/31 15:19:33;;;;;;;2.97;0.90;;;8.90;99.90;;;;;;10410744;28;20021;-66
2022/01/31 15:24:35;;;;;;;5.53;0.63;;;8.90;99.90;;;;;;10406999;28;20036;-67
2022/01/31 15:29:36;;;;;;;5.03;0.80;;;8.90;99.90;;;;;;10404237;28;20030;-64
2022/01/31 15:34:37;;;;;;;5.10;0.70;;;9.00;99.90;;;;;;10415835;28;20047;-71
2022/01/31 15:39:38;;;;;;;7.93;0.90;;;9.00;99.90;;;;;;10417342;28;20112;-70
2022/01/31 15:44:41;;;;;;;3.20;0.75;;;8.90;99.90;;;;;;10412462;28;20112;-68
2022/01/31 15:49:42;;;;;;;4.03;0.65;;;8.90;99.90;;;;;;10414364;28;20452;-66
2022/01/31 15:54:44;;;;;;;7.15;0.77;;;8.90;99.90;;;;;;10421472;28;20033;-63
2022/01/31 15:59:44;;;;;;;2.63;0.82;;;8.90;99.90;;;;;;10424516;28;20033;-69
2022/01/31 16:04:45;;;;;;;2.92;0.65;;;8.80;99.90;;;;;;10429821;28;20027;-70
2022/01/31 16:09:46;;;;;;;2.67;0.93;;;8.80;99.90;;;;;;10440692;28;20069;-72
2022/01/31 16:14:47;;;;;;;2.00;0.60;;;8.80;99.90;;;;;;10442052;28;20124;-71
2022/01/31 16:19:47;;;;;;;2.72;0.70;;;8.80;99.90;;;;;;10442053;28;20040;-73
2022/01/31 16:24:48;;;;;;;5.40;0.75;;;8.70;99.90;;;;;;10436352;28;20108;-79
2022/01/31 16:29:52;;;;;;;4.47;0.70;;;8.70;99.90;;;;;;10429734;28;20103;-76
2022/01/31 16:34:54;;;;;;;3.13;0.65;;;8.60;99.90;;;;;;10425562;28;20047;-75
2022/01/31 16:39:55;;;;;;;1.77;0.50;;;8.80;99.90;;;;;;10447753;28;20524;-74
2022/01/31 16:44:56;;;;;;;1.77;0.35;;;8.60;99.90;;;;;;10436986;28;20032;-70
2022/01/31 16:49:57;;;;;;;3.45;0.82;;;8.60;99.90;;;;;;10420702;28;20048;-71
2022/01/31 16:54:58;;;;;;;1.60;0.40;;;8.60;99.90;;;;;;10430117;28;20032;-75
2022/01/31 16:59:59;;;;;;;2.40;0.82;;;8.60;99.90;;;;;;10445188;28;20040;-71
2022/01/31 17:05:00;;;;;;;1.63;0.70;;;8.60;99.90;;;;;;10452299;28;20029;-72
2022/01/31 17:10:01;;;;;;;5.72;0.90;;;8.60;99.90;;;;;;10449830;28;20506;-72
2022/01/31 17:15:05;;;;;;;6.63;1.13;;;8.60;99.90;;;;;;10452062;28;20029;-72
2022/01/31 17:20:07;;;;;;;2.75;1.02;;;8.70;99.90;;;;;;10448942;28;20041;-73
2022/01/31 17:25:08;;;;;;;1.48;0.60;;;8.70;99.90;;;;;;10450052;28;20025;-72
2022/01/31 17:30:10;;;;;;;1.98;0.63;;;8.70;99.90;;;;;;10449218;28;20052;-71
2022/01/31 17:35:15;;;;;;;5.85;0.85;;;8.80;99.90;;;;;;10428570;28;20464;-73
2022/01/31 17:40:17;;;;;;;1.55;0.60;;;8.80;99.90;;;;;;10416341;28;20028;-70
2022/01/31 17:45:18;;;;;;;3.63;0.70;;;8.80;99.90;;;;;;10436872;28;20021;-69
2022/01/31 17:50:19;;;;;;;1.65;0.60;;;9.00;99.90;;;;;;10454320;28;20183;-69
2022/01/31 17:55:21;;;;;;;8.65;1.73;;;9.00;99.90;;;;;;10454299;28;20033;-74
2022/01/31 18:00:22;;;;;;;3.90;0.70;;;8.90;99.90;;;;;;10446928;28;20049;-73
2022/01/31 18:05:23;;;;;;;1.88;0.50;;;8.90;99.90;;;;;;10442023;28;20036;-75
2022/01/31 18:10:24;;;;;;;1.35;0.50;;;8.90;99.90;;;;;;10427999;28;20511;-77
2022/01/31 18:15:25;;;;;;;7.70;1.08;;;8.80;99.90;;;;;;10446082;28;20025;-75
2022/01/31 18:20:26;;;;;;;3.13;1.17;;;8.80;99.90;;;;;;10444760;28;20033;-70
2022/01/31 18:25:27;;;;;;;1.77;0.40;;;8.80;99.90;;;;;;10417501;28;20036;-77
2022/01/31 18:30:28;;;;;;;2.20;0.47;;;8.70;99.90;;;;;;10407814;28;20115;-72
2022/01/31 18:35:29;;;;;;;3.25;0.52;;;8.70;99.90;;;;;;10418656;28;20133;-72
2022/01/31 18:40:29;;;;;;;1.27;0.77;;;8.70;99.90;;;;;;10436355;28;20175;-72
2022/01/31 18:45:31;;;;;;;4.50;0.60;;;8.70;99.90;;;;;;10434072;28;20496;-72
2022/01/31 18:50:38;;;;;;;2.95;0.70;;;8.70;99.90;;;;;;10451930;28;20376;-74
2022/01/31 18:55:39;;;;;;;4.65;0.70;;;8.60;99.90;;;;;;10444884;28;20045;-74
2022/01/31 19:00:39;;;;;;;4.75;1.42;;;8.60;99.90;;;;;;10445554;28;20037;-71
2022/01/31 19:05:40;;;;;;;2.83;0.95;;;8.60;99.90;;;;;;10428447;28;20060;-74
2022/01/31 19:15:51;;;;;;;4.60;1.10;;;8.60;99.90;;;;;;10442768;28;20036;-72
2022/01/31 19:20:55;;;;;;;5.90;0.90;;;8.60;99.90;;;;;;10441311;28;20456;-71
2022/01/31 19:25:57;;;;;;;6.40;1.67;;;8.80;99.90;;;;;;10425815;28;20386;-71
2022/01/31 19:30:59;;;;;;;5.32;0.90;;;8.60;99.90;;;;;;10425719;28;20045;-72
2022/01/31 19:36:00;;;;;;;4.43;1.17;;;8.60;99.90;;;;;;10429241;28;20025;-78
2022/01/31 19:46:23;;;;;;;8.45;1.20;;;8.50;99.90;;;;;;10434376;28;20551;-74
2022/01/31 19:51:26;;;;;;;10.95;1.50;;;8.70;99.90;;;;;;10430733;28;20024;-73
2022/01/31 19:56:28;;;;;;;8.88;1.42;;;8.50;99.90;;;;;;10422434;28;20021;-74
2022/01/31 20:01:30;;;;;;;5.10;1.40;;;8.50;99.90;;;;;;10414752;28;20036;-76
2022/01/31 20:06:31;;;;;;;8.13;1.45;;;8.50;99.90;;;;;;10423620;28;20051;-76
2022/01/31 20:11:32;;;;;;;6.45;1.40;;;8.50;99.90;;;;;;10428011;28;20431;-76
2022/01/31 20:16:34;;;;;;;6.18;1.15;;;8.50;99.90;;;;;;10426258;28;20037;-74
2022/01/31 20:21:34;;;;;;;11.25;2.50;;;8.50;99.90;;;;;;10431125;28;20044;-76
2022/01/31 20:26:37;;;;;;;8.65;1.48;;;8.50;99.90;;;;;;10416632;28;20120;-74
2022/01/31 20:31:38;;;;;;;4.95;1.42;;;8.50;99.90;;;;;;10418537;28;20040;-73
2022/01/31 20:36:42;;;;;;;10.15;1.90;;;8.40;99.90;;;;;;10438438;28;20035;-72
2022/01/31 20:41:46;;;;;;;7.93;2.05;;;8.50;99.90;;;;;;10443622;28;20033;-72
2022/01/31 20:46:50;;;;;;;9.30;1.55;;;8.40;99.90;;;;;;10424295;28;20033;-72
2022/01/31 20:51:51;;;;;;;9.27;1.48;;;8.40;99.90;;;;;;10431439;28;20025;-72
2022/01/31 20:56:52;;;;;;;8.10;1.73;;;8.40;99.90;;;;;;10419474;28;20499;-71
2022/01/31 21:01:52;;;;;;;9.00;1.60;;;8.40;99.90;;;;;;10415124;28;20496;-73
2022/01/31 21:06:53;;;;;;;13.00;1.85;;;8.40;99.90;;;;;;10412556;28;20033;-72
2022/01/31 21:11:54;;;;;;;7.32;2.08;;;8.30;99.90;;;;;;10421434;28;20057;-72
2022/01/31 21:16:54;;;;;;;7.15;1.60;;;8.30;99.90;;;;;;10420999;28;20038;-72
2022/01/31 21:21:55;;;;;;;3.28;1.13;;;8.60;99.90;;;;;;10414899;28;20218;-72
2022/01/31 21:26:56;;;;;;;5.28;1.30;;;8.30;99.90;;;;;;10417637;28;20558;-71
2022/01/31 21:31:57;;;;;;;13.95;1.92;;;8.30;99.90;;;;;;10425163;28;20443;-72
2022/01/31 21:36:57;;;;;;;6.38;1.55;;;8.60;99.90;;;;;;10441404;28;20090;-72
2022/01/31 21:41:58;;;;;;;8.70;1.70;;;8.20;99.90;;;;;;10453621;28;20035;-73
2022/01/31 21:46:59;;;;;;;10.70;1.48;;;8.20;99.90;;;;;;10452265;28;20261;-72
2022/01/31 21:52:00;;;;;;;8.93;2.13;;;8.20;99.90;;;;;;10454150;28;20037;-72
2022/01/31 21:57:00;;;;;;;11.52;2.17;;;8.10;99.90;;;;;;10451929;28;20028;-72
2022/01/31 22:02:01;;;;;;;10.40;1.63;;;8.10;99.90;;;;;;10444242;28;20029;-71
2022/01/31 22:07:03;;;;;;;11.35;1.98;;;8.10;99.90;;;;;;10447674;28;20040;-72
2022/01/31 22:12:04;;;;;;;9.63;1.70;;;8.10;99.90;;;;;;10444832;28;20048;-71
2022/01/31 22:17:06;;;;;;;8.77;2.13;;;8.00;99.90;;;;;;10433339;28;20037;-71
2022/01/31 22:22:06;;;;;;;9.20;1.67;;;8.10;99.90;;;;;;10431817;28;20236;-71
2022/01/31 22:27:07;;;;;;;8.98;1.75;;;8.00;99.90;;;;;;10426986;28;20032;-71
2022/01/31 22:32:08;;;;;;;7.50;2.20;;;8.00;99.90;;;;;;10448306;28;20037;-72
2022/01/31 22:37:09;;;;;;;5.22;2.17;;;8.00;99.90;;;;;;10437399;28;20552;-71
2022/01/31 22:42:12;;;;;;;7.47;1.80;;;7.90;99.80;;;;;;10444886;28;20025;-72
2022/01/31 22:47:12;;;;;;;9.82;2.17;;;7.90;99.80;;;;;;10467782;28;20505;-73
2022/01/31 22:52:13;;;;;;;8.75;2.60;;;7.90;99.80;;;;;;10459344;28;20119;-71
2022/01/31 22:57:14;;;;;;;8.75;2.78;;;7.90;99.80;;;;;;10445661;28;20033;-72
2022/01/31 23:02:15;;;;;;;10.02;3.03;;;7.90;99.70;;;;;;10446244;28;20083;-71
2022/01/31 23:07:15;;;;;;;9.18;2.75;;;7.80;99.70;;;;;;10441246;28;20487;-73
2022/01/31 23:12:16;;;;;;;8.63;2.70;;;7.80;99.70;;;;;;10434650;28;20049;-72
2022/01/31 23:17:26;;;;;;;10.02;2.28;;;7.80;99.60;;;;;;10440560;28;20017;-71
2022/01/31 23:54:04;;;;;;;8.40;1.88;;;7.70;99.40;;;;;;10459502;28;20028;-72
